createdAt,value
2019-05-10T00:00:39.115Z,17.70
2019-05-10T00:06:02.401Z,17.70
2019-05-10T00:11:32.992Z,16.90
2019-05-10T00:16:39.065Z,16.90
2019-05-10T00:21:44.519Z,16.80
2019-05-10T00:26:50.102Z,16.90
2019-05-10T00:31:55.550Z,16.80
2019-05-10T00:37:00.952Z,16.90
2019-05-10T00:42:06.548Z,16.80
2019-05-10T00:47:12.285Z,16.70
2019-05-10T00:52:17.807Z,16.60
2019-05-10T00:57:23.345Z,16.60
2019-05-10T01:02:28.947Z,16.60
2019-05-10T01:07:34.520Z,16.50
2019-05-10T01:12:40.331Z,16.50
2019-05-10T01:17:45.961Z,16.50
2019-05-10T01:22:51.379Z,16.60
2019-05-10T01:27:56.893Z,16.60
2019-05-10T01:33:02.406Z,16.30
2019-05-10T01:38:07.872Z,16.10
2019-05-10T01:43:13.311Z,16.00
2019-05-10T01:48:18.730Z,16.10
2019-05-10T01:53:24.404Z,16.10
2019-05-10T01:58:30.143Z,16.10
2019-05-10T02:03:35.760Z,16.00
2019-05-10T02:08:41.523Z,15.90
2019-05-10T02:13:47.170Z,16.00
2019-05-10T02:18:52.919Z,16.00
2019-05-10T02:23:58.397Z,15.80
2019-05-10T02:29:04.439Z,15.80
2019-05-10T02:34:10.329Z,15.70
2019-05-10T02:39:15.996Z,15.40
2019-05-10T02:44:21.420Z,15.40
2019-05-10T02:49:26.844Z,15.30
2019-05-10T02:54:32.591Z,15.10
2019-05-10T02:59:38.696Z,15.20
2019-05-10T03:04:46.450Z,15.40
2019-05-10T03:09:52.056Z,15.40
2019-05-10T03:14:58.969Z,15.30
2019-05-10T03:20:04.800Z,15.00
2019-05-10T03:25:11.242Z,15.10
2019-05-10T03:30:16.926Z,15.30
2019-05-10T03:35:23.193Z,15.00
2019-05-10T03:40:28.760Z,15.30
2019-05-10T03:45:34.212Z,14.90
2019-05-10T03:50:39.694Z,14.90
2019-05-10T03:55:45.335Z,14.80
2019-05-10T04:00:51.117Z,14.70
2019-05-10T04:05:56.975Z,14.60
2019-05-10T04:11:02.661Z,14.50
2019-05-10T04:16:08.501Z,14.50
2019-05-10T04:21:13.899Z,14.50
2019-05-10T04:26:19.303Z,14.60
2019-05-10T04:31:24.682Z,14.70
2019-05-10T04:36:30.112Z,14.60
2019-05-10T04:41:35.757Z,14.70
2019-05-10T04:46:41.307Z,14.60
2019-05-10T04:51:46.787Z,14.50
2019-05-10T04:56:52.359Z,14.50
2019-05-10T05:01:57.990Z,14.80
2019-05-10T05:07:03.414Z,15.00
2019-05-10T05:12:08.896Z,15.20
2019-05-10T05:17:14.522Z,15.40
2019-05-10T05:22:20.013Z,15.90
2019-05-10T05:27:25.603Z,16.10
2019-05-10T05:32:31.073Z,16.00
2019-05-10T05:37:36.688Z,16.10
2019-05-10T05:42:42.511Z,16.40
2019-05-10T05:47:47.920Z,16.40
2019-05-10T05:52:53.544Z,16.30
2019-05-10T05:58:05.037Z,16.50
2019-05-10T06:03:06.563Z,16.80
2019-05-10T06:08:30.075Z,17.10
2019-05-10T06:13:23.290Z,17.40
2019-05-10T06:18:26.573Z,17.30
2019-05-10T06:23:35.151Z,17.50
2019-05-10T06:33:46.836Z,17.80
2019-05-10T06:38:52.415Z,18.00
2019-05-10T06:43:57.932Z,18.00
2019-05-10T06:49:08.408Z,18.10
2019-05-10T06:54:10.972Z,18.30
2019-05-10T06:59:19.328Z,18.50
2019-05-10T07:04:23.772Z,18.40
2019-05-10T07:09:29.187Z,18.40
2019-05-10T07:14:34.594Z,18.50
2019-05-10T07:19:42.045Z,18.50
2019-05-10T07:24:47.259Z,18.70
2019-05-10T07:29:52.838Z,18.60
2019-05-10T07:35:00.726Z,18.60
2019-05-10T07:40:06.405Z,18.50
2019-05-10T07:45:12.083Z,18.70
2019-05-10T07:50:17.619Z,18.60
2019-05-10T07:55:28.078Z,18.50
2019-05-10T08:00:30.235Z,18.50
2019-05-10T08:05:35.663Z,18.60
2019-05-10T08:10:41.088Z,18.60
2019-05-10T08:15:48.932Z,18.80
2019-05-10T08:21:01.546Z,18.90
2019-05-10T08:26:04.539Z,19.00
2019-05-10T08:31:08.739Z,19.00
2019-05-10T08:36:14.519Z,19.10
2019-05-10T08:41:22.197Z,19.20
2019-05-10T08:46:37.394Z,19.30
2019-05-10T08:51:34.578Z,19.30
2019-05-10T08:56:43.938Z,19.20
2019-05-10T09:01:50.883Z,19.20
2019-05-10T09:06:59.616Z,19.10
2019-05-10T09:12:04.075Z,19.20
2019-05-10T09:17:14.095Z,19.40
2019-05-10T09:22:15.936Z,19.40
2019-05-10T09:27:22.475Z,19.40
2019-05-10T09:32:28.897Z,19.10
2019-05-10T09:37:35.274Z,19.40
2019-05-10T09:42:43.365Z,19.30
2019-05-10T09:47:47.800Z,19.60
2019-05-10T09:52:53.363Z,20.00
2019-05-10T09:57:58.809Z,20.10
2019-05-10T10:03:04.877Z,20.50
2019-05-10T10:08:10.995Z,20.30
2019-05-10T10:13:35.710Z,20.30
2019-05-10T10:18:25.573Z,20.50
2019-05-10T10:23:34.834Z,20.60
2019-05-10T10:28:39.667Z,20.90
2019-05-10T10:33:54.941Z,20.90
2019-05-10T10:38:52.596Z,20.90
2019-05-10T10:43:58.420Z,20.90
2019-05-10T10:49:05.547Z,21.20
2019-05-10T10:54:11.135Z,21.50
2019-05-10T10:59:18.336Z,21.70
2019-05-10T11:04:23.823Z,21.70
2019-05-10T11:09:31.170Z,21.90
2019-05-10T11:14:39.976Z,22.20
2019-05-10T11:19:44.016Z,22.80
2019-05-10T11:24:51.513Z,23.10
2019-05-10T11:29:56.740Z,23.30
2019-05-10T11:35:05.267Z,23.80
2019-05-10T11:40:11.297Z,23.80
2019-05-10T11:45:17.598Z,24.20
2019-05-10T11:50:30.906Z,24.20
2019-05-10T11:55:30.955Z,24.60
2019-05-10T12:00:37.772Z,24.50
2019-05-10T12:05:43.403Z,24.60
2019-05-10T12:10:54.413Z,25.40
2019-05-10T12:15:56.058Z,25.00
2019-05-10T12:26:05.557Z,25.70
2019-05-10T12:27:13.263Z,25.70
2019-05-10T12:31:17.195Z,25.70
2019-05-10T12:36:27.341Z,25.70
2019-05-10T12:41:31.603Z,26.00
2019-05-10T12:46:39.784Z,25.90
2019-05-10T12:51:44.306Z,24.50
2019-05-10T12:56:49.871Z,24.20
2019-05-10T13:01:58.178Z,24.00
2019-05-10T13:07:02.434Z,22.40
2019-05-10T13:12:07.888Z,22.20
2019-05-10T13:17:16.894Z,22.30
2019-05-10T13:22:20.939Z,21.70
2019-05-10T13:27:26.335Z,21.90
2019-05-10T13:32:32.039Z,24.20
2019-05-10T13:37:37.490Z,24.10
2019-05-10T13:42:45.669Z,25.00
2019-05-10T13:47:50.157Z,26.10
2019-05-10T13:52:55.650Z,26.10
2019-05-10T13:58:01.383Z,26.10
2019-05-10T14:03:11.532Z,26.50
2019-05-10T14:08:13.976Z,26.60
2019-05-10T14:13:19.517Z,26.20
2019-05-10T14:18:25.051Z,26.70
2019-05-10T14:23:35.333Z,27.40
2019-05-10T14:28:37.584Z,26.80
2019-05-10T14:33:49.762Z,26.80
2019-05-10T14:38:53.937Z,26.80
2019-05-10T14:43:57.350Z,27.30
2019-05-10T14:49:09.783Z,27.20
2019-05-10T14:54:10.028Z,27.90
2019-05-10T14:59:15.611Z,28.50
2019-05-10T15:04:43.893Z,28.10
2019-05-10T15:09:28.134Z,27.70
2019-05-10T15:14:33.567Z,27.80
2019-05-10T15:19:39.008Z,28.00
2019-05-10T15:24:44.455Z,28.20
2019-05-10T15:29:49.887Z,28.10
2019-05-10T15:35:06.118Z,28.00
2019-05-10T15:40:06.231Z,27.60
2019-05-10T15:45:14.542Z,27.50
2019-05-10T15:50:17.741Z,27.30
2019-05-10T15:55:28.587Z,27.00
2019-05-10T16:00:37.467Z,26.70
2019-05-10T16:05:43.624Z,27.40
2019-05-10T16:10:45.213Z,26.40
2019-05-10T16:15:51.671Z,26.70
2019-05-10T16:20:57.918Z,27.00
2019-05-10T16:26:03.350Z,27.00
2019-05-10T16:31:08.778Z,25.30
2019-05-10T16:36:14.262Z,25.00
2019-05-10T16:41:19.866Z,25.90
2019-05-10T16:46:25.245Z,26.30
2019-05-10T16:51:30.722Z,25.90
2019-05-10T16:56:36.448Z,26.30
2019-05-10T17:01:41.832Z,26.70
2019-05-10T17:06:47.328Z,26.00
2019-05-10T17:11:52.722Z,25.00
2019-05-10T17:16:59.801Z,22.70
2019-05-10T17:22:05.166Z,21.70
2019-05-10T17:27:10.685Z,21.40
2019-05-10T17:32:18.556Z,21.20
2019-05-10T17:37:23.335Z,21.20
2019-05-10T17:42:28.831Z,20.70
2019-05-10T17:47:34.362Z,20.50
2019-05-10T17:52:39.871Z,20.90
2019-05-10T17:57:48.757Z,22.70
2019-05-10T18:02:52.516Z,22.30
2019-05-10T18:07:58.001Z,21.50
2019-05-10T18:13:05.282Z,20.90
2019-05-10T18:18:10.903Z,20.40
2019-05-10T18:23:21.439Z,20.30
2019-05-10T18:28:23.703Z,20.30
2019-05-10T18:33:29.364Z,20.10
2019-05-10T18:38:37.107Z,19.70
2019-05-10T18:43:42.950Z,19.70
2019-05-10T18:48:48.571Z,19.60
2019-05-10T18:53:54.186Z,19.60
2019-05-10T18:59:06.897Z,19.50
2019-05-10T19:04:07.502Z,19.40
2019-05-10T19:09:14.898Z,19.10
2019-05-10T19:14:23.993Z,19.00
2019-05-10T19:19:27.495Z,19.00
2019-05-10T19:24:33.121Z,19.10
2019-05-10T19:29:45.348Z,19.10
2019-05-10T19:34:48.403Z,19.00
2019-05-10T19:39:54.325Z,19.00
2019-05-10T19:44:59.702Z,19.10
2019-05-10T19:50:05.806Z,19.10
2019-05-10T19:55:12.987Z,18.90
2019-05-10T20:00:19.921Z,18.80
2019-05-10T20:05:25.503Z,18.90
2019-05-10T20:10:30.940Z,18.90
2019-05-10T20:15:36.503Z,18.70
2019-05-10T20:20:42.027Z,18.60
2019-05-10T20:25:47.629Z,18.50
2019-05-10T20:30:53.160Z,18.50
2019-05-10T20:35:58.580Z,18.60
2019-05-10T20:41:04.676Z,18.40
2019-05-10T20:46:11.556Z,18.30
2019-05-10T20:51:17.132Z,18.00
2019-05-10T20:56:22.603Z,18.20
2019-05-10T21:01:28.122Z,18.00
2019-05-10T21:06:33.573Z,18.20
2019-05-10T21:11:38.987Z,18.10
2019-05-10T21:16:44.384Z,18.10
2019-05-10T21:21:49.859Z,18.10
2019-05-10T21:26:55.304Z,17.90
2019-05-10T21:32:00.761Z,18.10
2019-05-10T21:37:06.343Z,18.30
2019-05-10T21:42:12.330Z,18.30
2019-05-10T21:47:17.766Z,18.20
2019-05-10T21:52:23.238Z,18.40
2019-05-10T21:57:28.674Z,18.10
2019-05-10T22:02:34.260Z,18.20
2019-05-10T22:07:39.839Z,18.30
2019-05-10T22:12:45.350Z,18.30
2019-05-10T22:17:50.801Z,18.30
2019-05-10T22:22:56.206Z,18.40
2019-05-10T22:28:01.850Z,18.30
2019-05-10T22:33:07.331Z,18.40
2019-05-10T22:38:12.714Z,18.30
2019-05-10T22:43:18.286Z,18.40
2019-05-10T22:48:23.732Z,18.40
2019-05-10T22:53:30.991Z,18.10
2019-05-10T22:58:36.552Z,18.20
2019-05-10T23:03:41.934Z,18.20
2019-05-10T23:08:47.397Z,18.10
2019-05-10T23:13:52.944Z,18.00
2019-05-10T23:18:58.309Z,18.10
2019-05-10T23:24:06.818Z,18.30
2019-05-10T23:29:12.312Z,18.40
2019-05-10T23:34:17.804Z,18.30
2019-05-10T23:39:32.058Z,18.40
2019-05-10T23:44:30.297Z,18.40
2019-05-10T23:49:35.848Z,18.50
2019-05-10T23:54:41.214Z,18.40
2019-05-10T23:59:46.670Z,18.40
